sensor_id;sensor_type;location;lat;lon;timestamp;pressure;altitude;pressure_sealevel;temperature;humidity
79671;BME280;69137;50.878;8.050;2024-02-14T00:01:47;98358.41;;;6.23;83.06
79671;BME280;69137;50.878;8.050;2024-02-14T00:04:13;98369.16;;;6.18;83.21
79671;BME280;69137;50.878;8.050;2024-02-14T00:06:39;98356.75;;;6.22;83.26
79671;BME280;69137;50.878;8.050;2024-02-14T00:09:05;98344.47;;;6.19;83.17
79671;BME280;69137;50.878;8.050;2024-02-14T00:11:31;98347.41;;;6.29;82.92
79671;BME280;69137;50.878;8.050;2024-02-14T00:13:57;98336.72;;;6.23;83.02
79671;BME280;69137;50.878;8.050;2024-02-14T00:16:24;98339.66;;;6.21;83.48
79671;BME280;69137;50.878;8.050;2024-02-14T00:18:49;98337.84;;;6.27;83.18
79671;BME280;69137;50.878;8.050;2024-02-14T00:21:14;98330.91;;;6.31;83.17
79671;BME280;69137;50.878;8.050;2024-02-14T00:23:40;98326.19;;;6.26;83.33
79671;BME280;69137;50.878;8.050;2024-02-14T00:26:05;98337.63;;;6.17;83.83
79671;BME280;69137;50.878;8.050;2024-02-14T00:28:30;98322.91;;;6.12;84.20
79671;BME280;69137;50.878;8.050;2024-02-14T00:30:55;98322.44;;;6.16;83.84
79671;BME280;69137;50.878;8.050;2024-02-14T00:33:21;98326.31;;;6.20;83.95
79671;BME280;69137;50.878;8.050;2024-02-14T00:35:47;98325.38;;;6.14;84.06
79671;BME280;69137;50.878;8.050;2024-02-14T00:38:12;98313.94;;;6.24;82.93
79671;BME280;69137;50.878;8.050;2024-02-14T00:40:37;98319.47;;;6.29;83.28
79671;BME280;69137;50.878;8.050;2024-02-14T00:43:03;98320.31;;;6.18;83.76
79671;BME280;69137;50.878;8.050;2024-02-14T00:45:28;98315.47;;;6.20;83.26
79671;BME280;69137;50.878;8.050;2024-02-14T00:47:53;98307.91;;;6.22;83.06
79671;BME280;69137;50.878;8.050;2024-02-14T00:50:19;98306.13;;;6.27;83.06
79671;BME280;69137;50.878;8.050;2024-02-14T00:52:44;98310.03;;;6.20;82.93
79671;BME280;69137;50.878;8.050;2024-02-14T00:55:09;98302.47;;;6.33;81.70
79671;BME280;69137;50.878;8.050;2024-02-14T00:57:35;98305.69;;;6.19;83.10
79671;BME280;69137;50.878;8.050;2024-02-14T01:00:00;98308.84;;;6.27;82.67
79671;BME280;69137;50.878;8.050;2024-02-14T01:02:25;98313.91;;;6.36;82.05
79671;BME280;69137;50.878;8.050;2024-02-14T01:04:51;98307.16;;;6.38;81.91
79671;BME280;69137;50.878;8.050;2024-02-14T01:07:17;98311.66;;;6.32;81.79
79671;BME280;69137;50.878;8.050;2024-02-14T01:09:42;98312.84;;;6.25;82.26
79671;BME280;69137;50.878;8.050;2024-02-14T01:12:07;98306.09;;;6.39;81.55
79671;BME280;69137;50.878;8.050;2024-02-14T01:14:33;98305.50;;;6.37;81.47
79671;BME280;69137;50.878;8.050;2024-02-14T01:16:58;98314.72;;;6.36;81.67
79671;BME280;69137;50.878;8.050;2024-02-14T01:19:23;98305.41;;;6.32;81.73
79671;BME280;69137;50.878;8.050;2024-02-14T01:21:50;98316.84;;;6.34;81.32
79671;BME280;69137;50.878;8.050;2024-02-14T01:24:16;98293.13;;;6.41;80.65
79671;BME280;69137;50.878;8.050;2024-02-14T01:26:41;98299.69;;;6.45;81.21
79671;BME280;69137;50.878;8.050;2024-02-14T01:29:06;98299.47;;;6.47;81.10
79671;BME280;69137;50.878;8.050;2024-02-14T01:31:34;98288.94;;;6.50;80.91
79671;BME280;69137;50.878;8.050;2024-02-14T01:34:00;98292.38;;;6.46;80.92
79671;BME280;69137;50.878;8.050;2024-02-14T01:36:28;98299.25;;;6.37;81.11
79671;BME280;69137;50.878;8.050;2024-02-14T01:38:53;98287.53;;;6.48;80.98
79671;BME280;69137;50.878;8.050;2024-02-14T01:41:18;98292.81;;;6.54;80.41
79671;BME280;69137;50.878;8.050;2024-02-14T01:43:44;98284.53;;;6.61;80.44
79671;BME280;69137;50.878;8.050;2024-02-14T01:46:10;98286.31;;;6.55;80.63
79671;BME280;69137;50.878;8.050;2024-02-14T01:48:36;98288.34;;;6.48;81.52
79671;BME280;69137;50.878;8.050;2024-02-14T01:51:03;98285.50;;;6.55;80.70
79671;BME280;69137;50.878;8.050;2024-02-14T01:53:29;98276.09;;;6.46;81.71
79671;BME280;69137;50.878;8.050;2024-02-14T01:55:57;98272.44;;;6.40;82.06
79671;BME280;69137;50.878;8.050;2024-02-14T01:58:22;98267.03;;;6.40;81.66
79671;BME280;69137;50.878;8.050;2024-02-14T02:00:48;98274.34;;;6.40;82.00
79671;BME280;69137;50.878;8.050;2024-02-14T02:03:14;98263.06;;;6.60;80.81
79671;BME280;69137;50.878;8.050;2024-02-14T02:05:40;98264.09;;;6.59;81.14
79671;BME280;69137;50.878;8.050;2024-02-14T02:08:08;98264.59;;;6.55;81.27
79671;BME280;69137;50.878;8.050;2024-02-14T02:10:34;98258.94;;;6.57;81.87
79671;BME280;69137;50.878;8.050;2024-02-14T02:12:59;98253.03;;;6.60;81.39
79671;BME280;69137;50.878;8.050;2024-02-14T02:15:27;98257.88;;;6.58;81.88
79671;BME280;69137;50.878;8.050;2024-02-14T02:17:54;98256.03;;;6.47;82.42
79671;BME280;69137;50.878;8.050;2024-02-14T02:20:19;98259.38;;;6.66;81.85
79671;BME280;69137;50.878;8.050;2024-02-14T02:22:46;98254.44;;;6.63;82.08
79671;BME280;69137;50.878;8.050;2024-02-14T02:25:12;98256.47;;;6.55;83.04
79671;BME280;69137;50.878;8.050;2024-02-14T02:27:38;98256.81;;;6.59;82.94
79671;BME280;69137;50.878;8.050;2024-02-14T02:30:07;98254.25;;;6.52;83.24
79671;BME280;69137;50.878;8.050;2024-02-14T02:32:35;98262.50;;;6.46;84.12
79671;BME280;69137;50.878;8.050;2024-02-14T02:35:01;98261.88;;;6.55;83.71
79671;BME280;69137;50.878;8.050;2024-02-14T02:37:27;98254.25;;;6.52;83.72
79671;BME280;69137;50.878;8.050;2024-02-14T02:39:55;98256.84;;;6.47;83.74
79671;BME280;69137;50.878;8.050;2024-02-14T02:42:20;98254.72;;;6.49;84.31
79671;BME280;69137;50.878;8.050;2024-02-14T02:44:50;98257.44;;;6.49;84.33
79671;BME280;69137;50.878;8.050;2024-02-14T02:47:15;98264.41;;;6.45;84.85
79671;BME280;69137;50.878;8.050;2024-02-14T02:49:42;98260.06;;;6.44;84.64
79671;BME280;69137;50.878;8.050;2024-02-14T02:52:10;98268.53;;;6.48;84.97
79671;BME280;69137;50.878;8.050;2024-02-14T02:54:35;98269.03;;;6.45;85.44
79671;BME280;69137;50.878;8.050;2024-02-14T02:57:00;98278.06;;;6.50;85.36
79671;BME280;69137;50.878;8.050;2024-02-14T02:59:28;98282.56;;;6.56;84.81
79671;BME280;69137;50.878;8.050;2024-02-14T03:01:54;98284.97;;;6.41;85.34
79671;BME280;69137;50.878;8.050;2024-02-14T03:04:20;98265.97;;;6.41;85.96
79671;BME280;69137;50.878;8.050;2024-02-14T03:06:45;98265.22;;;6.46;86.01
79671;BME280;69137;50.878;8.050;2024-02-14T03:09:11;98270.44;;;6.47;85.70
79671;BME280;69137;50.878;8.050;2024-02-14T03:11:37;98264.19;;;6.47;86.11
79671;BME280;69137;50.878;8.050;2024-02-14T03:14:03;98262.28;;;6.47;86.31
79671;BME280;69137;50.878;8.050;2024-02-14T03:16:28;98258.59;;;6.53;86.28
79671;BME280;69137;50.878;8.050;2024-02-14T03:18:54;98263.41;;;6.34;87.42
79671;BME280;69137;50.878;8.050;2024-02-14T03:21:20;98268.69;;;6.41;86.92
79671;BME280;69137;50.878;8.050;2024-02-14T03:23:45;98257.53;;;6.54;86.49
79671;BME280;69137;50.878;8.050;2024-02-14T03:26:10;98259.38;;;6.37;87.23
79671;BME280;69137;50.878;8.050;2024-02-14T03:28:36;98250.09;;;6.33;87.53
79671;BME280;69137;50.878;8.050;2024-02-14T03:31:01;98253.56;;;6.45;86.38
79671;BME280;69137;50.878;8.050;2024-02-14T03:33:26;98253.56;;;6.45;86.60
79671;BME280;69137;50.878;8.050;2024-02-14T03:35:54;98263.91;;;6.48;86.13
79671;BME280;69137;50.878;8.050;2024-02-14T03:38:28;98252.00;;;6.49;86.47
79671;BME280;69137;50.878;8.050;2024-02-14T03:40:54;98254.28;;;6.41;86.92
79671;BME280;69137;50.878;8.050;2024-02-14T03:43:19;98261.88;;;6.55;86.40
79671;BME280;69137;50.878;8.050;2024-02-14T03:45:45;98271.34;;;6.53;86.57
79671;BME280;69137;50.878;8.050;2024-02-14T03:48:11;98258.78;;;6.64;86.02
79671;BME280;69137;50.878;8.050;2024-02-14T03:50:39;98260.09;;;6.61;86.03
79671;BME280;69137;50.878;8.050;2024-02-14T03:53:04;98257.03;;;6.57;86.50
79671;BME280;69137;50.878;8.050;2024-02-14T03:55:29;98258.34;;;6.55;86.83
79671;BME280;69137;50.878;8.050;2024-02-14T03:57:55;98259.13;;;6.67;87.01
79671;BME280;69137;50.878;8.050;2024-02-14T04:00:21;98270.47;;;6.64;87.36
79671;BME280;69137;50.878;8.050;2024-02-14T04:02:47;98273.56;;;6.56;89.34
79671;BME280;69137;50.878;8.050;2024-02-14T04:05:14;98277.06;;;6.40;89.77
79671;BME280;69137;50.878;8.050;2024-02-14T04:07:39;98273.84;;;6.43;90.18
79671;BME280;69137;50.878;8.050;2024-02-14T04:10:05;98274.56;;;6.38;91.15
79671;BME280;69137;50.878;8.050;2024-02-14T04:12:31;98287.31;;;6.38;91.65
79671;BME280;69137;50.878;8.050;2024-02-14T04:14:56;98287.81;;;6.34;92.99
79671;BME280;69137;50.878;8.050;2024-02-14T04:17:22;98294.81;;;6.30;92.71
79671;BME280;69137;50.878;8.050;2024-02-14T04:19:47;98288.09;;;6.21;93.73
79671;BME280;69137;50.878;8.050;2024-02-14T04:22:13;98298.50;;;6.12;94.82
79671;BME280;69137;50.878;8.050;2024-02-14T04:24:38;98296.47;;;6.20;94.66
79671;BME280;69137;50.878;8.050;2024-02-14T04:27:04;98298.03;;;6.16;94.29
79671;BME280;69137;50.878;8.050;2024-02-14T04:29:29;98290.59;;;6.11;95.32
79671;BME280;69137;50.878;8.050;2024-02-14T04:31:58;98298.50;;;6.12;95.17
79671;BME280;69137;50.878;8.050;2024-02-14T04:34:23;98294.72;;;6.13;95.25
79671;BME280;69137;50.878;8.050;2024-02-14T04:36:49;98280.22;;;6.08;96.08
79671;BME280;69137;50.878;8.050;2024-02-14T04:39:14;98292.25;;;6.12;95.54
79671;BME280;69137;50.878;8.050;2024-02-14T04:41:39;98276.06;;;6.17;95.69
79671;BME280;69137;50.878;8.050;2024-02-14T04:44:05;98284.69;;;6.14;96.13
79671;BME280;69137;50.878;8.050;2024-02-14T04:46:33;98278.69;;;6.12;96.17
79671;BME280;69137;50.878;8.050;2024-02-14T04:49:00;98276.72;;;6.36;95.48
79671;BME280;69137;50.878;8.050;2024-02-14T04:51:28;98283.50;;;6.22;95.99
79671;BME280;69137;50.878;8.050;2024-02-14T04:53:54;98286.09;;;6.17;96.81
79671;BME280;69137;50.878;8.050;2024-02-14T04:56:19;98282.59;;;6.04;97.64
79671;BME280;69137;50.878;8.050;2024-02-14T04:58:44;98280.56;;;6.11;97.86
79671;BME280;69137;50.878;8.050;2024-02-14T05:01:09;98273.03;;;6.13;97.77
79671;BME280;69137;50.878;8.050;2024-02-14T05:03:35;98282.78;;;6.15;97.91
79671;BME280;69137;50.878;8.050;2024-02-14T05:06:01;98272.69;;;6.10;98.22
79671;BME280;69137;50.878;8.050;2024-02-14T05:08:27;98281.38;;;6.12;98.43
79671;BME280;69137;50.878;8.050;2024-02-14T05:10:53;98277.25;;;6.21;97.36
79671;BME280;69137;50.878;8.050;2024-02-14T05:13:18;98272.63;;;6.33;96.42
79671;BME280;69137;50.878;8.050;2024-02-14T05:15:44;98277.22;;;6.33;97.28
79671;BME280;69137;50.878;8.050;2024-02-14T05:18:09;98271.81;;;6.21;97.19
79671;BME280;69137;50.878;8.050;2024-02-14T05:20:34;98275.94;;;6.24;97.50
79671;BME280;69137;50.878;8.050;2024-02-14T05:23:00;98279.84;;;6.28;96.55
79671;BME280;69137;50.878;8.050;2024-02-14T05:25:25;98281.38;;;6.24;97.10
79671;BME280;69137;50.878;8.050;2024-02-14T05:27:54;98277.03;;;6.11;97.80
79671;BME280;69137;50.878;8.050;2024-02-14T05:30:20;98277.03;;;6.23;97.24
79671;BME280;69137;50.878;8.050;2024-02-14T05:32:45;98280.69;;;6.17;97.80
79671;BME280;69137;50.878;8.050;2024-02-14T05:35:11;98276.44;;;6.21;97.90
79671;BME280;69137;50.878;8.050;2024-02-14T05:37:36;98284.94;;;6.12;97.50
79671;BME280;69137;50.878;8.050;2024-02-14T05:40:03;98277.84;;;6.11;98.21
79671;BME280;69137;50.878;8.050;2024-02-14T05:42:31;98284.31;;;6.22;98.14
79671;BME280;69137;50.878;8.050;2024-02-14T05:44:57;98284.19;;;6.17;98.48
79671;BME280;69137;50.878;8.050;2024-02-14T05:47:23;98282.44;;;6.23;98.25
79671;BME280;69137;50.878;8.050;2024-02-14T05:49:50;98288.81;;;6.17;99.40
79671;BME280;69137;50.878;8.050;2024-02-14T05:52:15;98290.44;;;6.29;98.73
79671;BME280;69137;50.878;8.050;2024-02-14T05:54:41;98291.59;;;6.33;97.96
79671;BME280;69137;50.878;8.050;2024-02-14T05:57:07;98280.88;;;6.27;98.85
79671;BME280;69137;50.878;8.050;2024-02-14T05:59:33;98290.19;;;6.31;99.26
79671;BME280;69137;50.878;8.050;2024-02-14T06:01:58;98293.13;;;6.29;99.20
79671;BME280;69137;50.878;8.050;2024-02-14T06:04:23;98289.72;;;6.34;99.27
79671;BME280;69137;50.878;8.050;2024-02-14T06:06:49;98290.09;;;6.26;99.55
79671;BME280;69137;50.878;8.050;2024-02-14T06:09:14;98288.09;;;6.21;100.00
79671;BME280;69137;50.878;8.050;2024-02-14T06:11:39;98289.38;;;6.30;100.00
79671;BME280;69137;50.878;8.050;2024-02-14T06:14:06;98298.03;;;6.16;100.00
79671;BME280;69137;50.878;8.050;2024-02-14T06:16:32;98298.25;;;6.14;100.00
79671;BME280;69137;50.878;8.050;2024-02-14T06:18:57;98301.06;;;6.19;100.00
79671;BME280;69137;50.878;8.050;2024-02-14T06:21:23;98307.31;;;6.20;100.00
79671;BME280;69137;50.878;8.050;2024-02-14T06:23:48;98302.97;;;6.19;100.00
79671;BME280;69137;50.878;8.050;2024-02-14T06:26:13;98306.16;;;6.16;100.00
79671;BME280;69137;50.878;8.050;2024-02-14T06:28:39;98306.00;;;6.22;100.00
79671;BME280;69137;50.878;8.050;2024-02-14T06:31:04;98307.91;;;6.22;100.00
79671;BME280;69137;50.878;8.050;2024-02-14T06:33:30;98302.84;;;6.25;99.87
79671;BME280;69137;50.878;8.050;2024-02-14T06:35:55;98309.91;;;6.26;100.00
79671;BME280;69137;50.878;8.050;2024-02-14T06:38:20;98310.38;;;6.23;100.00
79671;BME280;69137;50.878;8.050;2024-02-14T06:40:46;98320.03;;;6.31;100.00
79671;BME280;69137;50.878;8.050;2024-02-14T06:43:11;98326.84;;;6.45;98.90
79671;BME280;69137;50.878;8.050;2024-02-14T06:45:37;98322.38;;;6.39;99.47
79671;BME280;69137;50.878;8.050;2024-02-14T06:48:03;98312.66;;;6.43;99.20
79671;BME280;69137;50.878;8.050;2024-02-14T06:50:28;98319.59;;;6.63;98.62
79671;BME280;69137;50.878;8.050;2024-02-14T06:52:54;98329.66;;;6.50;98.93
79671;BME280;69137;50.878;8.050;2024-02-14T06:55:23;98324.72;;;6.47;98.83
79671;BME280;69137;50.878;8.050;2024-02-14T06:57:48;98334.16;;;6.45;98.99
79671;BME280;69137;50.878;8.050;2024-02-14T07:00:14;98336.25;;;6.54;98.83
79671;BME280;69137;50.878;8.050;2024-02-14T07:02:39;98341.69;;;6.54;98.84
79671;BME280;69137;50.878;8.050;2024-02-14T07:05:04;98337.41;;;6.59;99.52
79671;BME280;69137;50.878;8.050;2024-02-14T07:07:32;98335.38;;;6.66;99.13
79671;BME280;69137;50.878;8.050;2024-02-14T07:09:57;98343.69;;;6.59;99.60
79671;BME280;69137;50.878;8.050;2024-02-14T07:12:22;98337.69;;;6.45;100.00
79671;BME280;69137;50.878;8.050;2024-02-14T07:14:48;98352.38;;;6.61;99.90
79671;BME280;69137;50.878;8.050;2024-02-14T07:17:14;98351.25;;;6.57;100.00
79671;BME280;69137;50.878;8.050;2024-02-14T07:19:39;98353.75;;;6.47;100.00
79671;BME280;69137;50.878;8.050;2024-02-14T07:22:04;98351.25;;;6.45;100.00
79671;BME280;69137;50.878;8.050;2024-02-14T07:24:30;98353.75;;;6.47;100.00
79671;BME280;69137;50.878;8.050;2024-02-14T07:26:55;98362.81;;;6.52;100.00
79671;BME280;69137;50.878;8.050;2024-02-14T07:29:22;98357.16;;;6.54;100.00
79671;BME280;69137;50.878;8.050;2024-02-14T07:31:47;98367.25;;;6.70;100.00
79671;BME280;69137;50.878;8.050;2024-02-14T07:34:13;98367.06;;;6.77;100.00
79671;BME280;69137;50.878;8.050;2024-02-14T07:36:38;98373.28;;;6.61;100.00
79671;BME280;69137;50.878;8.050;2024-02-14T07:39:06;98371.06;;;6.57;100.00
79671;BME280;69137;50.878;8.050;2024-02-14T07:41:31;98374.00;;;6.56;100.00
79671;BME280;69137;50.878;8.050;2024-02-14T07:43:57;98371.44;;;6.49;100.00
79671;BME280;69137;50.878;8.050;2024-02-14T07:46:22;98365.97;;;6.61;100.00
79671;BME280;69137;50.878;8.050;2024-02-14T07:48:48;98363.50;;;6.60;100.00
79671;BME280;69137;50.878;8.050;2024-02-14T07:51:14;98363.13;;;6.56;100.00
79671;BME280;69137;50.878;8.050;2024-02-14T07:53:39;98367.63;;;6.62;100.00
79671;BME280;69137;50.878;8.050;2024-02-14T07:56:05;98362.72;;;6.76;100.00
79671;BME280;69137;50.878;8.050;2024-02-14T07:58:30;98369.13;;;6.70;100.00
79671;BME280;69137;50.878;8.050;2024-02-14T08:00:55;98376.91;;;6.78;100.00
79671;BME280;69137;50.878;8.050;2024-02-14T08:03:21;98365.78;;;6.79;100.00
79671;BME280;69137;50.878;8.050;2024-02-14T08:05:46;98374.41;;;6.76;100.00
79671;BME280;69137;50.878;8.050;2024-02-14T08:08:11;98371.78;;;6.82;100.00
79671;BME280;69137;50.878;8.050;2024-02-14T08:10:36;98371.47;;;6.78;100.00
79671;BME280;69137;50.878;8.050;2024-02-14T08:13:02;98373.09;;;6.79;100.00
79671;BME280;69137;50.878;8.050;2024-02-14T08:15:29;98384.88;;;6.85;100.00
79671;BME280;69137;50.878;8.050;2024-02-14T08:17:54;98372.44;;;7.00;100.00
79671;BME280;69137;50.878;8.050;2024-02-14T08:20:21;98368.88;;;7.00;99.91
79671;BME280;69137;50.878;8.050;2024-02-14T08:22:47;98382.56;;;7.05;99.79
79671;BME280;69137;50.878;8.050;2024-02-14T08:25:12;98378.53;;;7.08;99.18
79671;BME280;69137;50.878;8.050;2024-02-14T08:27:37;98376.81;;;7.18;98.68
79671;BME280;69137;50.878;8.050;2024-02-14T08:30:03;98378.72;;;7.18;99.60
79671;BME280;69137;50.878;8.050;2024-02-14T08:32:31;98375.34;;;7.28;98.54
79671;BME280;69137;50.878;8.050;2024-02-14T08:34:56;98375.03;;;7.41;98.25
79671;BME280;69137;50.878;8.050;2024-02-14T08:37:22;98378.66;;;7.47;98.50
79671;BME280;69137;50.878;8.050;2024-02-14T08:39:49;98385.66;;;7.59;97.91
79671;BME280;69137;50.878;8.050;2024-02-14T08:42:15;98377.28;;;7.61;96.71
79671;BME280;69137;50.878;8.050;2024-02-14T08:44:40;98377.38;;;7.66;96.32
79671;BME280;69137;50.878;8.050;2024-02-14T08:47:06;98376.47;;;7.60;96.98
79671;BME280;69137;50.878;8.050;2024-02-14T08:49:31;98374.72;;;7.71;95.95
79671;BME280;69137;50.878;8.050;2024-02-14T08:51:56;98376.88;;;7.69;96.91
79671;BME280;69137;50.878;8.050;2024-02-14T08:54:22;98388.91;;;7.73;96.51
79671;BME280;69137;50.878;8.050;2024-02-14T08:56:48;98390.84;;;7.95;95.78
79671;BME280;69137;50.878;8.050;2024-02-14T08:59:13;98380.38;;;8.03;94.62
79671;BME280;69137;50.878;8.050;2024-02-14T09:01:39;98390.00;;;8.11;94.98
79671;BME280;69137;50.878;8.050;2024-02-14T09:04:04;98388.81;;;8.24;95.11
79671;BME280;69137;50.878;8.050;2024-02-14T09:06:29;98380.56;;;8.36;93.75
79671;BME280;69137;50.878;8.050;2024-02-14T09:08:55;98397.72;;;8.36;93.21
79671;BME280;69137;50.878;8.050;2024-02-14T09:11:20;98387.97;;;8.40;92.99
79671;BME280;69137;50.878;8.050;2024-02-14T09:13:47;98396.69;;;8.59;93.31
79671;BME280;69137;50.878;8.050;2024-02-14T09:16:14;98393.56;;;8.50;92.50
79671;BME280;69137;50.878;8.050;2024-02-14T09:18:40;98403.63;;;8.50;93.05
79671;BME280;69137;50.878;8.050;2024-02-14T09:21:06;98404.59;;;8.61;93.08
79671;BME280;69137;50.878;8.050;2024-02-14T09:23:32;98400.28;;;8.65;92.05
79671;BME280;69137;50.878;8.050;2024-02-14T09:25:58;98402.94;;;8.60;92.16
79671;BME280;69137;50.878;8.050;2024-02-14T09:28:23;98401.31;;;8.59;92.05
79671;BME280;69137;50.878;8.050;2024-02-14T09:30:50;98403.97;;;8.53;90.57
79671;BME280;69137;50.878;8.050;2024-02-14T09:33:15;98404.28;;;8.57;92.11
79671;BME280;69137;50.878;8.050;2024-02-14T09:35:41;98401.72;;;8.50;92.00
79671;BME280;69137;50.878;8.050;2024-02-14T09:38:10;98408.56;;;8.53;92.13
79671;BME280;69137;50.878;8.050;2024-02-14T09:40:37;98402.13;;;8.59;91.82
79671;BME280;69137;50.878;8.050;2024-02-14T09:43:05;98406.03;;;8.68;92.94
79671;BME280;69137;50.878;8.050;2024-02-14T09:45:36;98411.63;;;8.79;91.93
79671;BME280;69137;50.878;8.050;2024-02-14T09:48:02;98411.63;;;8.79;92.10
79671;BME280;69137;50.878;8.050;2024-02-14T09:50:29;98412.66;;;8.72;91.18
79671;BME280;69137;50.878;8.050;2024-02-14T09:52:56;98411.75;;;8.67;92.10
79671;BME280;69137;50.878;8.050;2024-02-14T09:55:23;98414.72;;;8.65;92.41
79671;BME280;69137;50.878;8.050;2024-02-14T09:57:49;98408.53;;;8.70;92.86
79671;BME280;69137;50.878;8.050;2024-02-14T10:00:15;98403.25;;;8.63;92.58
79671;BME280;69137;50.878;8.050;2024-02-14T10:02:41;98414.72;;;8.65;93.21
79671;BME280;69137;50.878;8.050;2024-02-14T10:05:07;98411.44;;;8.63;93.84
79671;BME280;69137;50.878;8.050;2024-02-14T10:07:42;98413.84;;;8.60;93.06
79671;BME280;69137;50.878;8.050;2024-02-14T10:10:08;98414.78;;;8.70;92.61
79671;BME280;69137;50.878;8.050;2024-02-14T10:12:33;98414.78;;;8.70;93.00
79671;BME280;69137;50.878;8.050;2024-02-14T10:14:59;98418.53;;;8.86;93.18
79671;BME280;69137;50.878;8.050;2024-02-14T10:17:24;98423.28;;;8.96;91.98
79671;BME280;69137;50.878;8.050;2024-02-14T10:19:59;98422.00;;;9.04;91.56
79671;BME280;69137;50.878;8.050;2024-02-14T10:22:32;98425.72;;;9.19;91.26
79671;BME280;69137;50.878;8.050;2024-02-14T10:24:57;98428.75;;;9.50;89.85
79671;BME280;69137;50.878;8.050;2024-02-14T10:27:22;98437.00;;;9.55;88.89
79671;BME280;69137;50.878;8.050;2024-02-14T10:29:48;98429.47;;;9.68;87.63
79671;BME280;69137;50.878;8.050;2024-02-14T10:32:15;98441.34;;;9.83;87.40
79671;BME280;69137;50.878;8.050;2024-02-14T10:34:43;98447.66;;;9.89;85.69
79671;BME280;69137;50.878;8.050;2024-02-14T10:37:13;98453.44;;;9.98;87.98
79671;BME280;69137;50.878;8.050;2024-02-14T10:39:41;98442.53;;;9.98;86.25
79671;BME280;69137;50.878;8.050;2024-02-14T10:42:07;98445.16;;;9.88;86.21
79671;BME280;69137;50.878;8.050;2024-02-14T10:44:32;98443.59;;;9.92;87.00
79671;BME280;69137;50.878;8.050;2024-02-14T10:46:59;98446.16;;;10.09;84.50
79671;BME280;69137;50.878;8.050;2024-02-14T10:49:27;98446.28;;;10.24;84.10
79671;BME280;69137;50.878;8.050;2024-02-14T10:51:54;98439.91;;;10.50;84.80
79671;BME280;69137;50.878;8.050;2024-02-14T10:54:19;98437.00;;;10.67;82.85
79671;BME280;69137;50.878;8.050;2024-02-14T10:56:49;98446.75;;;11.11;80.36
79671;BME280;69137;50.878;8.050;2024-02-14T10:59:19;98452.50;;;11.14;80.49
79671;BME280;69137;50.878;8.050;2024-02-14T11:01:46;98445.66;;;11.12;80.88
79671;BME280;69137;50.878;8.050;2024-02-14T11:04:12;98447.75;;;10.84;81.56
79671;BME280;69137;50.878;8.050;2024-02-14T11:06:47;98446.78;;;10.58;82.75
79671;BME280;69137;50.878;8.050;2024-02-14T11:09:13;98455.97;;;10.42;81.94
79671;BME280;69137;50.878;8.050;2024-02-14T11:11:41;98450.22;;;10.38;82.28
79671;BME280;69137;50.878;8.050;2024-02-14T11:14:08;98435.25;;;10.46;81.85
79671;BME280;69137;50.878;8.050;2024-02-14T11:16:33;98439.91;;;10.50;82.18
79671;BME280;69137;50.878;8.050;2024-02-14T11:19:11;98433.06;;;10.43;82.28
79671;BME280;69137;50.878;8.050;2024-02-14T11:21:41;98429.97;;;10.34;82.76
79671;BME280;69137;50.878;8.050;2024-02-14T11:24:10;98429.47;;;10.42;83.34
79671;BME280;69137;50.878;8.050;2024-02-14T11:26:55;98429.81;;;10.51;81.81
79671;BME280;69137;50.878;8.050;2024-02-14T11:29:28;98425.78;;;10.64;81.28
79671;BME280;69137;50.878;8.050;2024-02-14T11:31:59;98433.94;;;10.54;81.60
79671;BME280;69137;50.878;8.050;2024-02-14T11:34:28;98427.13;;;10.56;82.31
79671;BME280;69137;50.878;8.050;2024-02-14T11:36:54;98435.34;;;10.61;82.10
79671;BME280;69137;50.878;8.050;2024-02-14T11:39:20;98433.44;;;10.62;81.62
79671;BME280;69137;50.878;8.050;2024-02-14T11:41:45;98428.09;;;10.87;81.75
79671;BME280;69137;50.878;8.050;2024-02-14T11:44:11;98426.53;;;11.12;80.44
79671;BME280;69137;50.878;8.050;2024-02-14T11:46:37;98435.31;;;11.24;78.89
79671;BME280;69137;50.878;8.050;2024-02-14T11:49:04;98448.91;;;10.99;79.84
79671;BME280;69137;50.878;8.050;2024-02-14T11:51:31;98446.03;;;10.68;80.21
79671;BME280;69137;50.878;8.050;2024-02-14T11:53:57;98435.63;;;10.65;80.64
79671;BME280;69137;50.878;8.050;2024-02-14T11:56:32;98448.41;;;10.54;81.38
79671;BME280;69137;50.878;8.050;2024-02-14T11:59:02;98446.47;;;10.49;82.05
79671;BME280;69137;50.878;8.050;2024-02-14T12:01:31;98449.47;;;10.53;82.54
79671;BME280;69137;50.878;8.050;2024-02-14T12:03:58;98447.53;;;10.43;82.43
79671;BME280;69137;50.878;8.050;2024-02-14T12:06:24;98443.66;;;10.39;85.35
79671;BME280;69137;50.878;8.050;2024-02-14T12:08:49;98444.22;;;10.36;85.16
79671;BME280;69137;50.878;8.050;2024-02-14T12:11:16;98431.38;;;10.37;84.59
79671;BME280;69137;50.878;8.050;2024-02-14T12:13:42;98433.38;;;10.52;84.71
79671;BME280;69137;50.878;8.050;2024-02-14T12:16:10;98428.22;;;10.60;82.64
79671;BME280;69137;50.878;8.050;2024-02-14T12:18:35;98434.78;;;10.59;82.41
79671;BME280;69137;50.878;8.050;2024-02-14T12:21:04;98438.34;;;10.60;82.47
79671;BME280;69137;50.878;8.050;2024-02-14T12:23:33;98437.19;;;10.50;83.53
79671;BME280;69137;50.878;8.050;2024-02-14T12:26:01;98434.50;;;10.61;83.43
79671;BME280;69137;50.878;8.050;2024-02-14T12:28:29;98432.94;;;10.75;82.67
79671;BME280;69137;50.878;8.050;2024-02-14T12:30:56;98435.44;;;10.87;82.45
79671;BME280;69137;50.878;8.050;2024-02-14T12:33:25;98433.50;;;10.77;82.24
79671;BME280;69137;50.878;8.050;2024-02-14T12:35:53;98430.81;;;10.82;82.54
79671;BME280;69137;50.878;8.050;2024-02-14T12:38:20;98435.69;;;10.80;82.54
79671;BME280;69137;50.878;8.050;2024-02-14T12:40:46;98434.09;;;10.89;81.98
79671;BME280;69137;50.878;8.050;2024-02-14T12:43:13;98431.94;;;10.97;81.73
79671;BME280;69137;50.878;8.050;2024-02-14T12:45:39;98439.56;;;10.94;81.90
79671;BME280;69137;50.878;8.050;2024-02-14T12:48:05;98437.63;;;10.85;82.85
79671;BME280;69137;50.878;8.050;2024-02-14T12:50:31;98442.22;;;10.69;83.51
79671;BME280;69137;50.878;8.050;2024-02-14T12:52:57;98442.72;;;10.66;84.52
79671;BME280;69137;50.878;8.050;2024-02-14T12:55:23;98450.03;;;10.55;84.91
79671;BME280;69137;50.878;8.050;2024-02-14T12:57:51;98444.91;;;10.59;87.07
79671;BME280;69137;50.878;8.050;2024-02-14T13:00:16;98440.47;;;10.53;88.08
79671;BME280;69137;50.878;8.050;2024-02-14T13:02:42;98444.91;;;10.59;87.87